sensor_id;sensor_type;location;lat;lon;timestamp;P1;durP1;ratioP1;P2;durP2;ratioP2
18997;SDS011;9632;51.018;4.284;2022-12-11T00:01:29;35.60;;;15.60;;
18997;SDS011;9632;51.018;4.284;2022-12-11T00:03:55;32.60;;;14.73;;
18997;SDS011;9632;51.018;4.284;2022-12-11T00:06:22;33.13;;;15.73;;
18997;SDS011;9632;51.018;4.284;2022-12-11T00:08:53;35.47;;;15.43;;
18997;SDS011;9632;51.018;4.284;2022-12-11T00:11:20;32.67;;;15.27;;
18997;SDS011;9632;51.018;4.284;2022-12-11T00:13:46;32.00;;;14.70;;
18997;SDS011;9632;51.018;4.284;2022-12-11T00:16:12;34.83;;;15.53;;
18997;SDS011;9632;51.018;4.284;2022-12-11T00:18:39;33.27;;;15.70;;
18997;SDS011;9632;51.018;4.284;2022-12-11T00:21:06;30.53;;;14.57;;
18997;SDS011;9632;51.018;4.284;2022-12-11T00:23:34;33.57;;;14.60;;
18997;SDS011;9632;51.018;4.284;2022-12-11T00:26:04;36.20;;;15.03;;
18997;SDS011;9632;51.018;4.284;2022-12-11T00:28:31;32.03;;;14.07;;
18997;SDS011;9632;51.018;4.284;2022-12-11T00:30:57;31.77;;;14.40;;
18997;SDS011;9632;51.018;4.284;2022-12-11T00:33:22;35.17;;;14.67;;
18997;SDS011;9632;51.018;4.284;2022-12-11T00:35:50;31.03;;;14.87;;
18997;SDS011;9632;51.018;4.284;2022-12-11T00:38:16;37.20;;;14.50;;
18997;SDS011;9632;51.018;4.284;2022-12-11T00:40:45;35.53;;;14.43;;
18997;SDS011;9632;51.018;4.284;2022-12-11T00:43:11;33.40;;;14.60;;
18997;SDS011;9632;51.018;4.284;2022-12-11T00:45:37;34.17;;;14.00;;
18997;SDS011;9632;51.018;4.284;2022-12-11T00:48:05;31.83;;;13.40;;
18997;SDS011;9632;51.018;4.284;2022-12-11T00:50:31;35.03;;;13.77;;
18997;SDS011;9632;51.018;4.284;2022-12-11T00:52:57;36.83;;;14.73;;
18997;SDS011;9632;51.018;4.284;2022-12-11T00:55:22;37.20;;;14.47;;
18997;SDS011;9632;51.018;4.284;2022-12-11T00:57:52;31.90;;;13.53;;
18997;SDS011;9632;51.018;4.284;2022-12-11T01:00:19;34.27;;;14.57;;
18997;SDS011;9632;51.018;4.284;2022-12-11T01:02:44;33.33;;;13.50;;
18997;SDS011;9632;51.018;4.284;2022-12-11T01:05:10;35.77;;;14.37;;
18997;SDS011;9632;51.018;4.284;2022-12-11T01:07:36;35.47;;;14.80;;
18997;SDS011;9632;51.018;4.284;2022-12-11T01:10:02;32.70;;;13.50;;
18997;SDS011;9632;51.018;4.284;2022-12-11T01:12:47;35.27;;;13.20;;
18997;SDS011;9632;51.018;4.284;2022-12-11T01:15:13;38.13;;;13.80;;
18997;SDS011;9632;51.018;4.284;2022-12-11T01:17:38;37.37;;;14.53;;
18997;SDS011;9632;51.018;4.284;2022-12-11T01:20:04;35.10;;;14.27;;
18997;SDS011;9632;51.018;4.284;2022-12-11T01:22:30;30.50;;;13.10;;
18997;SDS011;9632;51.018;4.284;2022-12-11T01:24:56;29.87;;;13.07;;
18997;SDS011;9632;51.018;4.284;2022-12-11T01:27:21;28.40;;;12.23;;
18997;SDS011;9632;51.018;4.284;2022-12-11T01:29:47;30.30;;;13.33;;
18997;SDS011;9632;51.018;4.284;2022-12-11T01:32:13;34.20;;;14.03;;
18997;SDS011;9632;51.018;4.284;2022-12-11T01:34:39;33.27;;;13.47;;
18997;SDS011;9632;51.018;4.284;2022-12-11T01:37:05;35.60;;;13.87;;
18997;SDS011;9632;51.018;4.284;2022-12-11T01:39:31;37.20;;;14.63;;
18997;SDS011;9632;51.018;4.284;2022-12-11T01:42:00;31.80;;;13.27;;
18997;SDS011;9632;51.018;4.284;2022-12-11T01:46:51;31.97;;;13.23;;
18997;SDS011;9632;51.018;4.284;2022-12-11T01:49:18;33.20;;;13.77;;
18997;SDS011;9632;51.018;4.284;2022-12-11T01:54:15;34.63;;;14.03;;
18997;SDS011;9632;51.018;4.284;2022-12-11T01:56:43;35.93;;;14.27;;
18997;SDS011;9632;51.018;4.284;2022-12-11T01:59:10;32.33;;;13.80;;
18997;SDS011;9632;51.018;4.284;2022-12-11T02:01:42;34.60;;;13.53;;
18997;SDS011;9632;51.018;4.284;2022-12-11T02:04:15;28.83;;;12.60;;
18997;SDS011;9632;51.018;4.284;2022-12-11T02:06:47;30.97;;;12.73;;
18997;SDS011;9632;51.018;4.284;2022-12-11T02:09:18;32.20;;;13.00;;
18997;SDS011;9632;51.018;4.284;2022-12-11T02:17:10;30.33;;;13.07;;
18997;SDS011;9632;51.018;4.284;2022-12-11T02:19:49;32.93;;;13.20;;
18997;SDS011;9632;51.018;4.284;2022-12-11T02:27:47;36.10;;;13.23;;
18997;SDS011;9632;51.018;4.284;2022-12-11T02:30:23;31.53;;;13.00;;
18997;SDS011;9632;51.018;4.284;2022-12-11T02:35:25;34.50;;;13.87;;
18997;SDS011;9632;51.018;4.284;2022-12-11T02:37:59;36.33;;;14.87;;
18997;SDS011;9632;51.018;4.284;2022-12-11T02:40:29;33.80;;;13.17;;
18997;SDS011;9632;51.018;4.284;2022-12-11T02:42:57;35.27;;;14.47;;
18997;SDS011;9632;51.018;4.284;2022-12-11T02:45:30;36.10;;;14.73;;
18997;SDS011;9632;51.018;4.284;2022-12-11T02:47:57;33.67;;;14.00;;
18997;SDS011;9632;51.018;4.284;2022-12-11T02:50:25;33.00;;;14.27;;
18997;SDS011;9632;51.018;4.284;2022-12-11T02:52:52;32.77;;;13.47;;
18997;SDS011;9632;51.018;4.284;2022-12-11T02:55:21;38.13;;;15.37;;
18997;SDS011;9632;51.018;4.284;2022-12-11T02:57:52;34.65;;;14.80;;
18997;SDS011;9632;51.018;4.284;2022-12-11T03:00:29;37.17;;;14.90;;
18997;SDS011;9632;51.018;4.284;2022-12-11T03:02:56;39.83;;;16.20;;
18997;SDS011;9632;51.018;4.284;2022-12-11T03:05:21;34.73;;;14.70;;
18997;SDS011;9632;51.018;4.284;2022-12-11T03:07:47;33.97;;;14.70;;
18997;SDS011;9632;51.018;4.284;2022-12-11T03:10:14;34.80;;;14.67;;
18997;SDS011;9632;51.018;4.284;2022-12-11T03:12:43;35.60;;;14.53;;
18997;SDS011;9632;51.018;4.284;2022-12-11T03:15:13;34.53;;;14.40;;
18997;SDS011;9632;51.018;4.284;2022-12-11T03:18:03;36.70;;;14.77;;
18997;SDS011;9632;51.018;4.284;2022-12-11T03:20:36;36.77;;;14.87;;
18997;SDS011;9632;51.018;4.284;2022-12-11T03:25:53;44.07;;;16.80;;
18997;SDS011;9632;51.018;4.284;2022-12-11T03:28:35;35.05;;;15.45;;
18997;SDS011;9632;51.018;4.284;2022-12-11T03:31:44;36.93;;;15.60;;
18997;SDS011;9632;51.018;4.284;2022-12-11T03:34:12;43.43;;;17.80;;
18997;SDS011;9632;51.018;4.284;2022-12-11T03:36:43;39.47;;;16.07;;
18997;SDS011;9632;51.018;4.284;2022-12-11T03:39:12;40.27;;;16.37;;
18997;SDS011;9632;51.018;4.284;2022-12-11T03:41:43;40.60;;;17.23;;
18997;SDS011;9632;51.018;4.284;2022-12-11T03:44:10;43.23;;;17.67;;
18997;SDS011;9632;51.018;4.284;2022-12-11T03:46:37;40.53;;;17.73;;
18997;SDS011;9632;51.018;4.284;2022-12-11T03:49:07;42.65;;;18.60;;
18997;SDS011;9632;51.018;4.284;2022-12-11T03:51:37;39.93;;;17.40;;
18997;SDS011;9632;51.018;4.284;2022-12-11T03:54:04;46.77;;;18.57;;
18997;SDS011;9632;51.018;4.284;2022-12-11T03:56:30;41.57;;;17.07;;
18997;SDS011;9632;51.018;4.284;2022-12-11T03:58:59;41.40;;;17.47;;
18997;SDS011;9632;51.018;4.284;2022-12-11T04:01:25;42.95;;;17.63;;
18997;SDS011;9632;51.018;4.284;2022-12-11T04:03:51;47.27;;;17.97;;
18997;SDS011;9632;51.018;4.284;2022-12-11T04:06:17;41.43;;;17.87;;
18997;SDS011;9632;51.018;4.284;2022-12-11T04:08:42;42.07;;;17.87;;
18997;SDS011;9632;51.018;4.284;2022-12-11T04:11:08;46.23;;;18.17;;
18997;SDS011;9632;51.018;4.284;2022-12-11T04:13:53;44.00;;;16.97;;
18997;SDS011;9632;51.018;4.284;2022-12-11T04:16:37;44.57;;;17.20;;
18997;SDS011;9632;51.018;4.284;2022-12-11T04:19:03;43.33;;;17.90;;
18997;SDS011;9632;51.018;4.284;2022-12-11T04:21:47;43.63;;;17.63;;
18997;SDS011;9632;51.018;4.284;2022-12-11T04:24:32;45.53;;;18.00;;
18997;SDS011;9632;51.018;4.284;2022-12-11T04:26:58;43.93;;;16.90;;
18997;SDS011;9632;51.018;4.284;2022-12-11T04:29:23;45.93;;;18.77;;
18997;SDS011;9632;51.018;4.284;2022-12-11T04:31:49;45.27;;;17.27;;
18997;SDS011;9632;51.018;4.284;2022-12-11T04:34:15;42.27;;;17.27;;
18997;SDS011;9632;51.018;4.284;2022-12-11T04:36:41;40.90;;;17.03;;
18997;SDS011;9632;51.018;4.284;2022-12-11T04:39:07;40.57;;;16.93;;
18997;SDS011;9632;51.018;4.284;2022-12-11T04:41:33;41.10;;;17.23;;
18997;SDS011;9632;51.018;4.284;2022-12-11T04:43:59;45.17;;;18.43;;
18997;SDS011;9632;51.018;4.284;2022-12-11T04:46:25;42.10;;;17.40;;
18997;SDS011;9632;51.018;4.284;2022-12-11T04:48:51;43.33;;;17.37;;
18997;SDS011;9632;51.018;4.284;2022-12-11T04:51:17;44.70;;;17.70;;
18997;SDS011;9632;51.018;4.284;2022-12-11T04:53:43;42.07;;;16.50;;
18997;SDS011;9632;51.018;4.284;2022-12-11T04:56:10;44.03;;;18.27;;
18997;SDS011;9632;51.018;4.284;2022-12-11T04:58:38;42.47;;;17.97;;
18997;SDS011;9632;51.018;4.284;2022-12-11T05:01:14;42.67;;;17.37;;
18997;SDS011;9632;51.018;4.284;2022-12-11T05:03:42;40.07;;;17.00;;
18997;SDS011;9632;51.018;4.284;2022-12-11T05:06:08;43.10;;;18.07;;
18997;SDS011;9632;51.018;4.284;2022-12-11T05:08:35;40.40;;;17.47;;
18997;SDS011;9632;51.018;4.284;2022-12-11T05:11:03;41.07;;;17.13;;
18997;SDS011;9632;51.018;4.284;2022-12-11T05:13:32;41.38;;;17.42;;
18997;SDS011;9632;51.018;4.284;2022-12-11T05:15:58;40.93;;;17.53;;
18997;SDS011;9632;51.018;4.284;2022-12-11T05:18:24;45.53;;;18.33;;
18997;SDS011;9632;51.018;4.284;2022-12-11T05:20:57;43.43;;;18.63;;
18997;SDS011;9632;51.018;4.284;2022-12-11T05:23:24;38.83;;;16.60;;
18997;SDS011;9632;51.018;4.284;2022-12-11T05:25:54;43.83;;;18.30;;
18997;SDS011;9632;51.018;4.284;2022-12-11T05:28:21;45.27;;;18.73;;
18997;SDS011;9632;51.018;4.284;2022-12-11T05:30:53;44.57;;;18.30;;
18997;SDS011;9632;51.018;4.284;2022-12-11T05:33:23;48.20;;;19.57;;
18997;SDS011;9632;51.018;4.284;2022-12-11T05:35:49;42.80;;;18.70;;
18997;SDS011;9632;51.018;4.284;2022-12-11T05:38:14;50.47;;;19.77;;
18997;SDS011;9632;51.018;4.284;2022-12-11T05:40:40;45.57;;;18.67;;
18997;SDS011;9632;51.018;4.284;2022-12-11T05:43:06;56.77;;;20.77;;
18997;SDS011;9632;51.018;4.284;2022-12-11T05:45:32;51.30;;;20.43;;
18997;SDS011;9632;51.018;4.284;2022-12-11T05:47:58;56.03;;;21.40;;
18997;SDS011;9632;51.018;4.284;2022-12-11T05:50:23;50.17;;;19.83;;
18997;SDS011;9632;51.018;4.284;2022-12-11T05:52:49;53.03;;;20.53;;
18997;SDS011;9632;51.018;4.284;2022-12-11T05:55:14;58.87;;;21.63;;
18997;SDS011;9632;51.018;4.284;2022-12-11T05:57:41;52.43;;;21.30;;
18997;SDS011;9632;51.018;4.284;2022-12-11T06:00:07;58.07;;;20.03;;
18997;SDS011;9632;51.018;4.284;2022-12-11T06:02:34;55.67;;;22.10;;
18997;SDS011;9632;51.018;4.284;2022-12-11T06:05:00;55.77;;;23.03;;
18997;SDS011;9632;51.018;4.284;2022-12-11T06:07:26;60.53;;;21.80;;
18997;SDS011;9632;51.018;4.284;2022-12-11T06:09:51;56.97;;;21.17;;
18997;SDS011;9632;51.018;4.284;2022-12-11T06:12:17;56.37;;;22.47;;
18997;SDS011;9632;51.018;4.284;2022-12-11T06:14:43;58.03;;;22.90;;
18997;SDS011;9632;51.018;4.284;2022-12-11T06:17:09;56.67;;;22.70;;
18997;SDS011;9632;51.018;4.284;2022-12-11T06:19:34;68.63;;;26.70;;
18997;SDS011;9632;51.018;4.284;2022-12-11T06:22:00;59.10;;;23.20;;
18997;SDS011;9632;51.018;4.284;2022-12-11T06:24:26;59.33;;;22.60;;
18997;SDS011;9632;51.018;4.284;2022-12-11T06:26:51;53.77;;;21.63;;
18997;SDS011;9632;51.018;4.284;2022-12-11T06:29:17;52.40;;;21.83;;
18997;SDS011;9632;51.018;4.284;2022-12-11T06:31:42;55.10;;;22.43;;
18997;SDS011;9632;51.018;4.284;2022-12-11T06:34:10;62.93;;;26.50;;
18997;SDS011;9632;51.018;4.284;2022-12-11T06:36:36;61.10;;;24.13;;
18997;SDS011;9632;51.018;4.284;2022-12-11T06:39:02;59.67;;;23.50;;
18997;SDS011;9632;51.018;4.284;2022-12-11T06:41:28;52.30;;;22.03;;
18997;SDS011;9632;51.018;4.284;2022-12-11T06:43:53;52.30;;;21.40;;
18997;SDS011;9632;51.018;4.284;2022-12-11T06:46:19;58.83;;;22.40;;
18997;SDS011;9632;51.018;4.284;2022-12-11T06:48:45;56.67;;;22.23;;
18997;SDS011;9632;51.018;4.284;2022-12-11T06:51:15;64.57;;;23.40;;
18997;SDS011;9632;51.018;4.284;2022-12-11T06:53:43;55.07;;;21.70;;
18997;SDS011;9632;51.018;4.284;2022-12-11T06:56:11;58.07;;;21.93;;
18997;SDS011;9632;51.018;4.284;2022-12-11T06:58:38;54.90;;;21.50;;
18997;SDS011;9632;51.018;4.284;2022-12-11T07:01:11;50.73;;;20.60;;
18997;SDS011;9632;51.018;4.284;2022-12-11T07:03:41;62.03;;;26.33;;
18997;SDS011;9632;51.018;4.284;2022-12-11T07:06:07;53.83;;;22.63;;
18997;SDS011;9632;51.018;4.284;2022-12-11T07:08:33;54.87;;;21.37;;
18997;SDS011;9632;51.018;4.284;2022-12-11T07:11:05;56.33;;;20.67;;
18997;SDS011;9632;51.018;4.284;2022-12-11T07:13:33;54.83;;;21.43;;
18997;SDS011;9632;51.018;4.284;2022-12-11T07:15:59;58.67;;;21.33;;
18997;SDS011;9632;51.018;4.284;2022-12-11T07:18:26;59.53;;;21.07;;
18997;SDS011;9632;51.018;4.284;2022-12-11T07:20:52;60.33;;;21.30;;
18997;SDS011;9632;51.018;4.284;2022-12-11T07:23:18;56.77;;;21.43;;
18997;SDS011;9632;51.018;4.284;2022-12-11T07:25:44;54.53;;;21.37;;
18997;SDS011;9632;51.018;4.284;2022-12-11T07:28:10;57.70;;;21.60;;
18997;SDS011;9632;51.018;4.284;2022-12-11T07:30:37;61.53;;;21.83;;
18997;SDS011;9632;51.018;4.284;2022-12-11T07:33:02;57.60;;;21.70;;
18997;SDS011;9632;51.018;4.284;2022-12-11T07:35:28;58.43;;;22.30;;
18997;SDS011;9632;51.018;4.284;2022-12-11T07:37:54;59.90;;;22.87;;
18997;SDS011;9632;51.018;4.284;2022-12-11T07:40:19;63.73;;;23.57;;
18997;SDS011;9632;51.018;4.284;2022-12-11T07:42:45;64.47;;;22.73;;
18997;SDS011;9632;51.018;4.284;2022-12-11T07:45:11;55.00;;;20.87;;
18997;SDS011;9632;51.018;4.284;2022-12-11T07:47:36;55.10;;;21.23;;
18997;SDS011;9632;51.018;4.284;2022-12-11T07:50:02;60.20;;;22.13;;
18997;SDS011;9632;51.018;4.284;2022-12-11T07:52:27;59.07;;;21.90;;
18997;SDS011;9632;51.018;4.284;2022-12-11T07:54:53;55.00;;;20.63;;
18997;SDS011;9632;51.018;4.284;2022-12-11T07:57:19;57.27;;;19.97;;
18997;SDS011;9632;51.018;4.284;2022-12-11T07:59:45;52.30;;;19.57;;
18997;SDS011;9632;51.018;4.284;2022-12-11T08:02:10;55.00;;;20.07;;
18997;SDS011;9632;51.018;4.284;2022-12-11T08:04:36;55.63;;;19.90;;
18997;SDS011;9632;51.018;4.284;2022-12-11T08:07:02;50.07;;;19.40;;
18997;SDS011;9632;51.018;4.284;2022-12-11T08:09:28;51.93;;;19.50;;
18997;SDS011;9632;51.018;4.284;2022-12-11T08:11:53;55.97;;;22.07;;
18997;SDS011;9632;51.018;4.284;2022-12-11T08:14:20;54.07;;;19.90;;
18997;SDS011;9632;51.018;4.284;2022-12-11T08:16:46;54.47;;;19.87;;
18997;SDS011;9632;51.018;4.284;2022-12-11T08:19:12;52.00;;;19.17;;
18997;SDS011;9632;51.018;4.284;2022-12-11T08:21:39;59.50;;;20.23;;
18997;SDS011;9632;51.018;4.284;2022-12-11T08:24:05;51.70;;;18.73;;
18997;SDS011;9632;51.018;4.284;2022-12-11T08:26:31;51.97;;;19.50;;
18997;SDS011;9632;51.018;4.284;2022-12-11T08:28:57;51.43;;;19.37;;
18997;SDS011;9632;51.018;4.284;2022-12-11T08:31:24;53.23;;;18.73;;
18997;SDS011;9632;51.018;4.284;2022-12-11T08:33:50;59.93;;;20.47;;
18997;SDS011;9632;51.018;4.284;2022-12-11T08:36:20;55.77;;;19.20;;
18997;SDS011;9632;51.018;4.284;2022-12-11T08:38:47;53.50;;;18.60;;
18997;SDS011;9632;51.018;4.284;2022-12-11T08:41:13;53.87;;;18.83;;
18997;SDS011;9632;51.018;4.284;2022-12-11T08:43:41;52.17;;;19.37;;
18997;SDS011;9632;51.018;4.284;2022-12-11T08:46:07;49.73;;;17.60;;
18997;SDS011;9632;51.018;4.284;2022-12-11T08:48:34;47.47;;;17.23;;
18997;SDS011;9632;51.018;4.284;2022-12-11T08:51:02;51.63;;;19.17;;
18997;SDS011;9632;51.018;4.284;2022-12-11T08:53:30;52.70;;;19.47;;
18997;SDS011;9632;51.018;4.284;2022-12-11T08:56:03;49.70;;;18.57;;
18997;SDS011;9632;51.018;4.284;2022-12-11T08:58:30;51.60;;;18.07;;
18997;SDS011;9632;51.018;4.284;2022-12-11T09:00:56;53.93;;;19.13;;
18997;SDS011;9632;51.018;4.284;2022-12-11T09:03:22;56.23;;;20.80;;
18997;SDS011;9632;51.018;4.284;2022-12-11T09:05:48;51.57;;;18.50;;
18997;SDS011;9632;51.018;4.284;2022-12-11T09:08:13;52.80;;;18.67;;
18997;SDS011;9632;51.018;4.284;2022-12-11T09:10:39;60.73;;;19.97;;
18997;SDS011;9632;51.018;4.284;2022-12-11T09:13:05;54.83;;;19.83;;
18997;SDS011;9632;51.018;4.284;2022-12-11T09:15:30;53.33;;;19.40;;
18997;SDS011;9632;51.018;4.284;2022-12-11T09:17:56;50.97;;;18.33;;
18997;SDS011;9632;51.018;4.284;2022-12-11T09:20:22;53.73;;;18.87;;
18997;SDS011;9632;51.018;4.284;2022-12-11T09:22:47;48.53;;;18.10;;
18997;SDS011;9632;51.018;4.284;2022-12-11T09:25:13;48.87;;;18.27;;
18997;SDS011;9632;51.018;4.284;2022-12-11T09:27:39;50.90;;;18.10;;
18997;SDS011;9632;51.018;4.284;2022-12-11T09:30:04;60.00;;;18.10;;
18997;SDS011;9632;51.018;4.284;2022-12-11T09:32:31;49.67;;;18.00;;
18997;SDS011;9632;51.018;4.284;2022-12-11T09:34:56;51.23;;;17.80;;
18997;SDS011;9632;51.018;4.284;2022-12-11T09:37:22;45.70;;;16.97;;
18997;SDS011;9632;51.018;4.284;2022-12-11T09:39:48;47.60;;;16.97;;
18997;SDS011;9632;51.018;4.284;2022-12-11T09:42:15;45.47;;;16.87;;
18997;SDS011;9632;51.018;4.284;2022-12-11T09:44:48;45.93;;;17.13;;
18997;SDS011;9632;51.018;4.284;2022-12-11T09:47:20;42.07;;;16.70;;
18997;SDS011;9632;51.018;4.284;2022-12-11T09:52:36;55.77;;;20.47;;
18997;SDS011;9632;51.018;4.284;2022-12-11T09:55:16;50.47;;;17.73;;
18997;SDS011;9632;51.018;4.284;2022-12-11T09:57:49;49.53;;;17.97;;
18997;SDS011;9632;51.018;4.284;2022-12-11T10:06:00;44.47;;;16.20;;
18997;SDS011;9632;51.018;4.284;2022-12-11T10:11:57;47.13;;;18.23;;
18997;SDS011;9632;51.018;4.284;2022-12-11T10:17:24;48.60;;;17.87;;
18997;SDS011;9632;51.018;4.284;2022-12-11T10:19:54;53.53;;;19.13;;
18997;SDS011;9632;51.018;4.284;2022-12-11T10:22:26;58.53;;;20.40;;
18997;SDS011;9632;51.018;4.284;2022-12-11T10:24:57;60.50;;;21.23;;
18997;SDS011;9632;51.018;4.284;2022-12-11T10:27:29;46.17;;;17.23;;
18997;SDS011;9632;51.018;4.284;2022-12-11T10:30:18;49.23;;;18.23;;
18997;SDS011;9632;51.018;4.284;2022-12-11T10:40:48;55.27;;;18.27;;
18997;SDS011;9632;51.018;4.284;2022-12-11T10:43:16;49.17;;;17.33;;
18997;SDS011;9632;51.018;4.284;2022-12-11T10:45:49;45.50;;;16.63;;
18997;SDS011;9632;51.018;4.284;2022-12-11T10:48:16;48.63;;;17.07;;
18997;SDS011;9632;51.018;4.284;2022-12-11T10:50:42;47.17;;;16.87;;
18997;SDS011;9632;51.018;4.284;2022-12-11T10:53:19;45.93;;;17.27;;
18997;SDS011;9632;51.018;4.284;2022-12-11T10:55:46;49.73;;;17.40;;
18997;SDS011;9632;51.018;4.284;2022-12-11T10:58:15;50.83;;;18.07;;
18997;SDS011;9632;51.018;4.284;2022-12-11T11:00:45;47.63;;;17.27;;
18997;SDS011;9632;51.018;4.284;2022-12-11T11:03:32;46.33;;;16.60;;
18997;SDS011;9632;51.018;4.284;2022-12-11T11:06:05;55.93;;;19.30;;
18997;SDS011;9632;51.018;4.284;2022-12-11T11:08:48;81.57;;;28.23;;
18997;SDS011;9632;51.018;4.284;2022-12-11T11:13:51;52.43;;;17.50;;
18997;SDS011;9632;51.018;4.284;2022-12-11T11:16:27;44.37;;;16.03;;
18997;SDS011;9632;51.018;4.284;2022-12-11T11:18:53;46.37;;;16.63;;
18997;SDS011;9632;51.018;4.284;2022-12-11T11:21:22;52.23;;;18.20;;
18997;SDS011;9632;51.018;4.284;2022-12-11T11:23:50;46.63;;;16.60;;
18997;SDS011;9632;51.018;4.284;2022-12-11T11:26:17;44.90;;;15.13;;
18997;SDS011;9632;51.018;4.284;2022-12-11T11:28:48;45.37;;;16.03;;
18997;SDS011;9632;51.018;4.284;2022-12-11T11:31:19;49.63;;;17.50;;
18997;SDS011;9632;51.018;4.284;2022-12-11T11:34:06;46.27;;;15.37;;
18997;SDS011;9632;51.018;4.284;2022-12-11T11:36:35;44.97;;;15.40;;
18997;SDS011;9632;51.018;4.284;2022-12-11T11:44:22;41.13;;;14.53;;
18997;SDS011;9632;51.018;4.284;2022-12-11T11:49:43;40.10;;;14.07;;
18997;SDS011;9632;51.018;4.284;2022-12-11T11:52:27;39.77;;;13.67;;
18997;SDS011;9632;51.018;4.284;2022-12-11T11:55:05;44.43;;;14.90;;
18997;SDS011;9632;51.018;4.284;2022-12-11T11:57:39;52.20;;;15.80;;
18997;SDS011;9632;51.018;4.284;2022-12-11T12:00:20;53.03;;;17.33;;
18997;SDS011;9632;51.018;4.284;2022-12-11T12:02:48;53.28;;;17.55;;
18997;SDS011;9632;51.018;4.284;2022-12-11T12:05:21;44.17;;;15.30;;
18997;SDS011;9632;51.018;4.284;2022-12-11T12:11:06;44.87;;;14.60;;
18997;SDS011;9632;51.018;4.284;2022-12-11T12:25:28;35.80;;;12.20;;
18997;SDS011;9632;51.018;4.284;2022-12-11T12:45:45;34.57;;;12.33;;
18997;SDS011;9632;51.018;4.284;2022-12-11T12:48:17;31.55;;;11.38;;
18997;SDS011;9632;51.018;4.284;2022-12-11T12:50:45;35.83;;;11.80;;
18997;SDS011;9632;51.018;4.284;2022-12-11T12:53:17;36.17;;;12.60;;
18997;SDS011;9632;51.018;4.284;2022-12-11T12:55:47;31.33;;;11.77;;
18997;SDS011;9632;51.018;4.284;2022-12-11T12:58:24;35.13;;;12.03;;
18997;SDS011;9632;51.018;4.284;2022-12-11T13:01:05;31.23;;;11.50;;
18997;SDS011;9632;51.018;4.284;2022-12-11T13:09:11;44.27;;;15.23;;
18997;SDS011;9632;51.018;4.284;2022-12-11T13:11:43;41.33;;;14.77;;
18997;SDS011;9632;51.018;4.284;2022-12-11T13:16:42;36.40;;;13.30;;
18997;SDS011;9632;51.018;4.284;2022-12-11T13:22:33;34.23;;;12.33;;
18997;SDS011;9632;51.018;4.284;2022-12-11T13:24:55;29.47;;;11.20;;
18997;SDS011;9632;51.018;4.284;2022-12-11T13:32:38;65.57;;;26.93;;
18997;SDS011;9632;51.018;4.284;2022-12-11T13:35:06;43.30;;;17.38;;
18997;SDS011;9632;51.018;4.284;2022-12-11T13:37:40;44.20;;;14.88;;
18997;SDS011;9632;51.018;4.284;2022-12-11T13:40:32;40.87;;;14.47;;
18997;SDS011;9632;51.018;4.284;2022-12-11T13:43:04;45.97;;;15.93;;
18997;SDS011;9632;51.018;4.284;2022-12-11T13:48:14;44.47;;;15.80;;
18997;SDS011;9632;51.018;4.284;2022-12-11T13:50:46;45.20;;;16.03;;
18997;SDS011;9632;51.018;4.284;2022-12-11T13:53:15;57.30;;;18.30;;
18997;SDS011;9632;51.018;4.284;2022-12-11T13:55:42;53.92;;;16.95;;
18997;SDS011;9632;51.018;4.284;2022-12-11T13:58:18;47.70;;;15.83;;
18997;SDS011;9632;51.018;4.284;2022-12-11T14:03:24;51.80;;;17.37;;
18997;SDS011;9632;51.018;4.284;2022-12-11T14:05:50;63.38;;;19.13;;
18997;SDS011;9632;51.018;4.284;2022-12-11T14:08:19;53.87;;;17.20;;
18997;SDS011;9632;51.018;4.284;2022-12-11T14:10:51;58.00;;;19.23;;
18997;SDS011;9632;51.018;4.284;2022-12-11T14:15:49;74.10;;;20.53;;
18997;SDS011;9632;51.018;4.284;2022-12-11T14:18:17;67.72;;;19.40;;
18997;SDS011;9632;51.018;4.284;2022-12-11T14:20:45;54.70;;;17.33;;
18997;SDS011;9632;51.018;4.284;2022-12-11T14:23:20;51.57;;;17.67;;
18997;SDS011;9632;51.018;4.284;2022-12-11T14:29:04;56.93;;;18.10;;
18997;SDS011;9632;51.018;4.284;2022-12-11T14:31:32;56.67;;;18.70;;
18997;SDS011;9632;51.018;4.284;2022-12-11T14:34:14;53.63;;;17.80;;
18997;SDS011;9632;51.018;4.284;2022-12-11T14:36:45;47.25;;;17.15;;
18997;SDS011;9632;51.018;4.284;2022-12-11T14:39:13;55.83;;;18.98;;
18997;SDS011;9632;51.018;4.284;2022-12-11T14:44:17;57.28;;;19.30;;
18997;SDS011;9632;51.018;4.284;2022-12-11T14:46:49;53.20;;;18.08;;
18997;SDS011;9632;51.018;4.284;2022-12-11T14:49:45;45.72;;;15.93;;
18997;SDS011;9632;51.018;4.284;2022-12-11T14:52:28;49.67;;;16.55;;
18997;SDS011;9632;51.018;4.284;2022-12-11T14:55:02;50.78;;;17.70;;
18997;SDS011;9632;51.018;4.284;2022-12-11T14:57:54;48.20;;;16.65;;
18997;SDS011;9632;51.018;4.284;2022-12-11T15:00:27;48.30;;;17.20;;
18997;SDS011;9632;51.018;4.284;2022-12-11T15:03:01;47.50;;;16.63;;
18997;SDS011;9632;51.018;4.284;2022-12-11T15:05:29;52.05;;;17.70;;
18997;SDS011;9632;51.018;4.284;2022-12-11T15:08:14;55.30;;;17.97;;
18997;SDS011;9632;51.018;4.284;2022-12-11T15:13:29;87.40;;;21.95;;
18997;SDS011;9632;51.018;4.284;2022-12-11T15:15:55;61.87;;;19.93;;
18997;SDS011;9632;51.018;4.284;2022-12-11T15:18:30;60.80;;;21.60;;
18997;SDS011;9632;51.018;4.284;2022-12-11T15:20:58;51.83;;;20.03;;
18997;SDS011;9632;51.018;4.284;2022-12-11T15:23:27;53.83;;;19.30;;
18997;SDS011;9632;51.018;4.284;2022-12-11T15:25:58;53.63;;;18.80;;
18997;SDS011;9632;51.018;4.284;2022-12-11T15:30:54;51.70;;;17.87;;
18997;SDS011;9632;51.018;4.284;2022-12-11T15:33:22;48.07;;;16.63;;
18997;SDS011;9632;51.018;4.284;2022-12-11T15:38:39;46.77;;;16.87;;
18997;SDS011;9632;51.018;4.284;2022-12-11T15:41:15;50.15;;;17.58;;
18997;SDS011;9632;51.018;4.284;2022-12-11T15:43:45;46.60;;;17.35;;
18997;SDS011;9632;51.018;4.284;2022-12-11T15:46:11;45.47;;;16.67;;
18997;SDS011;9632;51.018;4.284;2022-12-11T15:48:36;48.30;;;16.10;;
18997;SDS011;9632;51.018;4.284;2022-12-11T15:51:02;48.30;;;17.23;;
18997;SDS011;9632;51.018;4.284;2022-12-11T15:53:28;49.23;;;17.50;;
18997;SDS011;9632;51.018;4.284;2022-12-11T15:55:54;42.20;;;16.40;;
18997;SDS011;9632;51.018;4.284;2022-12-11T15:58:21;43.67;;;16.40;;
18997;SDS011;9632;51.018;4.284;2022-12-11T16:00:48;47.33;;;17.00;;
18997;SDS011;9632;51.018;4.284;2022-12-11T16:03:14;43.28;;;16.60;;
18997;SDS011;9632;51.018;4.284;2022-12-11T16:05:42;46.57;;;16.63;;
18997;SDS011;9632;51.018;4.284;2022-12-11T16:08:09;40.53;;;15.85;;
18997;SDS011;9632;51.018;4.284;2022-12-11T16:10:39;43.90;;;15.85;;
18997;SDS011;9632;51.018;4.284;2022-12-11T16:13:07;39.77;;;15.73;;
18997;SDS011;9632;51.018;4.284;2022-12-11T16:15:33;48.57;;;17.20;;
18997;SDS011;9632;51.018;4.284;2022-12-11T16:18:06;46.70;;;17.43;;
18997;SDS011;9632;51.018;4.284;2022-12-11T16:20:33;48.03;;;17.73;;
18997;SDS011;9632;51.018;4.284;2022-12-11T16:23:00;42.90;;;16.10;;
18997;SDS011;9632;51.018;4.284;2022-12-11T16:25:26;42.70;;;16.40;;
18997;SDS011;9632;51.018;4.284;2022-12-11T16:27:56;48.00;;;17.17;;
18997;SDS011;9632;51.018;4.284;2022-12-11T16:30:22;43.20;;;16.27;;
18997;SDS011;9632;51.018;4.284;2022-12-11T16:32:49;45.55;;;17.48;;
18997;SDS011;9632;51.018;4.284;2022-12-11T16:35:15;48.90;;;16.90;;
18997;SDS011;9632;51.018;4.284;2022-12-11T16:37:41;45.70;;;16.57;;
18997;SDS011;9632;51.018;4.284;2022-12-11T16:40:06;46.03;;;16.73;;
18997;SDS011;9632;51.018;4.284;2022-12-11T16:42:33;40.70;;;15.63;;
18997;SDS011;9632;51.018;4.284;2022-12-11T16:45:03;43.33;;;16.67;;
18997;SDS011;9632;51.018;4.284;2022-12-11T16:47:30;47.87;;;17.73;;
18997;SDS011;9632;51.018;4.284;2022-12-11T16:49:56;50.33;;;18.43;;